Albert Maersk — OUOW2 — position and weather

sailwx.info

Track history (hours):
 
Tides and Currents Weather Stations Pressure Air Temp Water Temp Dewpoint Dewpoint Depression Visibility Wind Speed Wind Dir Waves Ship Positions

Albert Maersk

Last reported at 2017-Aug-19 01:30 UTC. Time now 2017-Aug-19 01:53 UTC.
Position N 36°59' E 003°04'.

MMSI: 220259928.

Date/timePositionNaut miles runAvg speedWind from/ knotsBaromVisibWave heightAir tempDewpointWater temp
2017-Aug-19 01:30N 36°59' E 003°04'816.2
2017-Aug-19 01:00N 36°58' E 002°54'816.0
2017-Aug-19 00:30N 36°57' E 002°44'816.1
2017-Aug-19 00:00N 36°56' E 002°34'816.1
2017-Aug-18 23:31N 36°55' E 002°25'815.4
2017-Aug-18 23:00N 36°52' E 002°15'815.6
2017-Aug-18 22:30N 36°51' E 002°06'1115.4
2017-Aug-18 21:48N 36°49' E 001°52'415.4
2017-Aug-18 21:30N 36°48' E 001°47'815.1
2017-Aug-18 21:01N 36°47' E 001°38'715.0
2017-Aug-18 20:31N 36°46' E 001°28'815.2
2017-Aug-18 20:00N 36°45' E 001°19'815.5
2017-Aug-18 19:31N 36°44' E 001°09'815.6
2017-Aug-18 19:01N 36°43' E 000°60'1015.9
2017-Aug-18 18:24N 36°42' E 000°48'616.4
2017-Aug-18 18:01N 36°41' E 000°40'816.4
2017-Aug-18 17:31N 36°39' E 000°30'816.3
2017-Aug-18 17:00N 36°38' E 000°20'816.0
2017-Aug-18 16:30N 36°36' E 000°10'816.0
2017-Aug-18 16:01N 36°35' E 000°00'816.0
2017-Aug-18 15:30N 36°33' W 000°10'714.7
2017-Aug-18 15:00N 36°35' W 000°19'715.3
2017-Aug-18 14:31N 36°33' W 000°28'1615.4
2017-Aug-18 13:28N 36°31' W 000°47'5715.9
2017-Aug-18 09:51N 36°23' W 001°58'25515.8
2017-Aug-17 17:46N 36°02' W 007°13'415.8
2017-Aug-17 17:30N 36°03' W 007°18'1515.8
2017-Aug-17 16:34N 36°05' W 007°36'115.8
2017-Aug-17 16:30N 36°05' W 007°38'816.0
2017-Aug-17 16:01N 36°06' W 007°47'815.9
2017-Aug-17 15:31N 36°07' W 007°57'816.0
2017-Aug-17 15:00N 36°08' W 008°07'816.2
2017-Aug-17 14:31N 36°09' W 008°17'916.3
2017-Aug-17 13:58N 36°11' W 008°28'816.2
2017-Aug-17 13:27N 36°12' W 008°38'816.1
2017-Aug-17 12:56N 36°13' W 008°48'716.1
2017-Aug-17 12:30N 36°14' W 008°56'816.2
2017-Aug-17 12:01N 36°16' W 009°06'816.1
2017-Aug-17 11:30N 36°17' W 009°16'815.9
2017-Aug-17 11:00N 36°19' W 009°26'815.7
2017-Aug-17 10:31N 36°21' W 009°35'815.7
2017-Aug-17 10:01N 36°24' W 009°44'4315.8
2017-Aug-17 07:15N 36°40' W 010°34'415.7
2017-Aug-17 07:00N 36°41' W 010°39'815.8
2017-Aug-17 06:30N 36°44' W 010°48'815.6
2017-Aug-17 06:00N 36°47' W 010°57'1115.5
2017-Aug-17 05:16N 36°51' W 011°11'16915.6
2017-Aug-16 18:27N 37°47' W 014°31'715.9
2017-Aug-16 17:59N 37°50' W 014°40'2516.0
2017-Aug-16 16:25N 37°58' W 015°10'916.1
2017-Aug-16 15:49N 38°01' W 015°21'516.0
2017-Aug-16 15:30N 38°03' W 015°28'815.9
2017-Aug-16 15:00N 38°05' W 015°37'815.9
2017-Aug-16 14:30N 38°07' W 015°47'917.2
2017-Aug-16 14:00N 38°10' W 015°57'814.8
2017-Aug-16 13:29N 38°12' W 016°07'816.0
2017-Aug-16 13:01N 38°15' W 016°16'816.2
2017-Aug-16 12:31N 38°17' W 016°26'7016.1
2017-Aug-16 08:11N 38°38' W 017°51'315.9
2017-Aug-16 08:00N 38°38' W 017°55'15016.1
2017-Aug-15 22:39N 39°19' W 021°01'4016.2
2017-Aug-15 20:10N 39°29' W 021°51'316.6
2017-Aug-15 19:59N 39°29' W 021°55'11815.9
2017-Aug-15 12:34N 39°56' W 024°25'116.3
2017-Aug-15 12:30N 39°56' W 024°26'815.9
2017-Aug-15 12:00N 39°58' W 024°36'1116.1
2017-Aug-15 11:21N 40°00' W 024°50'616.2
2017-Aug-15 10:58N 40°01' W 024°58'816.2
2017-Aug-15 10:30N 40°03' W 025°07'1016.3
2017-Aug-15 09:54N 40°05' W 025°20'716.3
2017-Aug-15 09:29N 40°07' W 025°29'1816.1
2017-Aug-15 08:23N 40°10' W 025°51'5416.3
2017-Aug-15 05:03N 40°20' W 027°01'115.9
2017-Aug-15 05:00N 40°20' W 027°02'5416.3
2017-Aug-15 01:41N 40°30' W 028°12'716.3
2017-Aug-15 01:14N 40°31' W 028°21'616.4
2017-Aug-15 00:53N 40°32' W 028°29'816.0
2017-Aug-15 00:23N 40°33' W 028°39'816.3
2017-Aug-14 23:54N 40°34' W 028°49'616.4
2017-Aug-14 23:30N 40°35' W 028°58'2416.2
2017-Aug-14 22:02N 40°39' W 029°29'116.7
2017-Aug-14 22:00N 40°39' W 029°30'1216.2
2017-Aug-14 21:16N 40°41' W 029°45'516.5
2017-Aug-14 20:57N 40°42' W 029°52'816.3
2017-Aug-14 20:29N 40°43' W 030°02'2016.4
2017-Aug-14 19:15N 40°46' W 030°28'  
2017-Aug-09 18:33N 40°22' W 072°59'114.6
2017-Aug-09 18:30N 40°22' W 073°00'3215.0
2017-Aug-09 16:21N 40°26' W 073°42'513.7
2017-Aug-09 16:00N 40°27' W 073°49'713.0
2017-Aug-09 15:26N 40°30' W 073°57'614.0
2017-Aug-09 15:00N 40°35' W 074°02'5 9.8
2017-Aug-09 14:30N 40°39' W 074°05'3 5.7
2017-Aug-09 14:00N 40°39' W 074°09'2 3.5
2017-Aug-09 13:29N 40°40' W 074°08'1 1.1
2017-Aug-09 12:59N 40°41' W 074°09'0 0.0
2017-Aug-09 12:29N 40°41' W 074°09'0 0.0
2017-Aug-09 11:59N 40°41' W 074°09'0 0.0
2017-Aug-09 11:29N 40°41' W 074°09'0 0.0
2017-Aug-09 10:59N 40°41' W 074°09'0 0.0
2017-Aug-09 10:29N 40°41' W 074°09'0 0.0
2017-Aug-09 09:59N 40°41' W 074°09'0 0.0
2017-Aug-09 09:29N 40°41' W 074°09'0 0.0
2017-Aug-09 08:59N 40°41' W 074°09'0 0.0
2017-Aug-09 08:29N 40°41' W 074°09'0 0.0
2017-Aug-09 07:59N 40°41' W 074°09'0 0.0
2017-Aug-09 07:29N 40°41' W 074°09'0 0.0
2017-Aug-09 06:59N 40°41' W 074°09'0 0.0
2017-Aug-09 06:29N 40°41' W 074°09'0 0.0
2017-Aug-09 05:59N 40°41' W 074°09'0 0.0
2017-Aug-09 05:26N 40°41' W 074°09'0 0.0
2017-Aug-09 04:59N 40°41' W 074°09'0 0.0
2017-Aug-09 04:29N 40°41' W 074°09'0 0.0
2017-Aug-09 03:59N 40°41' W 074°09'0 0.0
2017-Aug-09 03:29N 40°41' W 074°09'0 0.0
2017-Aug-09 02:59N 40°41' W 074°09'0 0.0
2017-Aug-09 02:29N 40°41' W 074°09'0 0.0
2017-Aug-09 01:59N 40°41' W 074°09'  
Track history (hours):
 
Tides and Currents Weather Stations Pressure Air Temp Water Temp Dewpoint Dewpoint Depression Visibility Wind Speed Wind Dir Waves Ship Positions

Albert Maersk

Last reported at 2017-Aug-19 01:30 UTC. Time now 2017-Aug-19 01:53 UTC.
Position N 36°59' E 003°04'.

MMSI: 220259928.

Date/timePositionNaut miles runAvg speedWind from/ knotsBaromVisibWave heightAir tempDewpointWater temp
2017-Aug-19 01:30N 36°59' E 003°04'816.2
2017-Aug-19 01:00N 36°58' E 002°54'816.0
2017-Aug-19 00:30N 36°57' E 002°44'816.1
2017-Aug-19 00:00N 36°56' E 002°34'816.1
2017-Aug-18 23:31N 36°55' E 002°25'815.4
2017-Aug-18 23:00N 36°52' E 002°15'815.6
2017-Aug-18 22:30N 36°51' E 002°06'1115.4
2017-Aug-18 21:48N 36°49' E 001°52'415.4
2017-Aug-18 21:30N 36°48' E 001°47'815.1
2017-Aug-18 21:01N 36°47' E 001°38'715.0
2017-Aug-18 20:31N 36°46' E 001°28'815.2
2017-Aug-18 20:00N 36°45' E 001°19'815.5
2017-Aug-18 19:31N 36°44' E 001°09'815.6
2017-Aug-18 19:01N 36°43' E 000°60'1015.9
2017-Aug-18 18:24N 36°42' E 000°48'616.4
2017-Aug-18 18:01N 36°41' E 000°40'816.4
2017-Aug-18 17:31N 36°39' E 000°30'816.3
2017-Aug-18 17:00N 36°38' E 000°20'816.0
2017-Aug-18 16:30N 36°36' E 000°10'816.0
2017-Aug-18 16:01N 36°35' E 000°00'816.0
2017-Aug-18 15:30N 36°33' W 000°10'714.7
2017-Aug-18 15:00N 36°35' W 000°19'715.3
2017-Aug-18 14:31N 36°33' W 000°28'1615.4
2017-Aug-18 13:28N 36°31' W 000°47'5715.9
2017-Aug-18 09:51N 36°23' W 001°58'25515.8
2017-Aug-17 17:46N 36°02' W 007°13'415.8
2017-Aug-17 17:30N 36°03' W 007°18'1515.8
2017-Aug-17 16:34N 36°05' W 007°36'115.8
2017-Aug-17 16:30N 36°05' W 007°38'816.0
2017-Aug-17 16:01N 36°06' W 007°47'815.9
2017-Aug-17 15:31N 36°07' W 007°57'816.0
2017-Aug-17 15:00N 36°08' W 008°07'816.2
2017-Aug-17 14:31N 36°09' W 008°17'916.3
2017-Aug-17 13:58N 36°11' W 008°28'816.2
2017-Aug-17 13:27N 36°12' W 008°38'816.1
2017-Aug-17 12:56N 36°13' W 008°48'716.1
2017-Aug-17 12:30N 36°14' W 008°56'816.2
2017-Aug-17 12:01N 36°16' W 009°06'816.1
2017-Aug-17 11:30N 36°17' W 009°16'815.9
2017-Aug-17 11:00N 36°19' W 009°26'815.7
2017-Aug-17 10:31N 36°21' W 009°35'815.7
2017-Aug-17 10:01N 36°24' W 009°44'4315.8
2017-Aug-17 07:15N 36°40' W 010°34'415.7
2017-Aug-17 07:00N 36°41' W 010°39'815.8
2017-Aug-17 06:30N 36°44' W 010°48'815.6
2017-Aug-17 06:00N 36°47' W 010°57'1115.5
2017-Aug-17 05:16N 36°51' W 011°11'16915.6
2017-Aug-16 18:27N 37°47' W 014°31'715.9
2017-Aug-16 17:59N 37°50' W 014°40'2516.0
2017-Aug-16 16:25N 37°58' W 015°10'916.1
2017-Aug-16 15:49N 38°01' W 015°21'516.0
2017-Aug-16 15:30N 38°03' W 015°28'815.9
2017-Aug-16 15:00N 38°05' W 015°37'815.9
2017-Aug-16 14:30N 38°07' W 015°47'917.2
2017-Aug-16 14:00N 38°10' W 015°57'814.8
2017-Aug-16 13:29N 38°12' W 016°07'816.0
2017-Aug-16 13:01N 38°15' W 016°16'816.2
2017-Aug-16 12:31N 38°17' W 016°26'7016.1
2017-Aug-16 08:11N 38°38' W 017°51'315.9
2017-Aug-16 08:00N 38°38' W 017°55'15016.1
2017-Aug-15 22:39N 39°19' W 021°01'4016.2
2017-Aug-15 20:10N 39°29' W 021°51'316.6
2017-Aug-15 19:59N 39°29' W 021°55'11815.9
2017-Aug-15 12:34N 39°56' W 024°25'116.3
2017-Aug-15 12:30N 39°56' W 024°26'815.9
2017-Aug-15 12:00N 39°58' W 024°36'1116.1
2017-Aug-15 11:21N 40°00' W 024°50'616.2
2017-Aug-15 10:58N 40°01' W 024°58'816.2
2017-Aug-15 10:30N 40°03' W 025°07'1016.3
2017-Aug-15 09:54N 40°05' W 025°20'716.3
2017-Aug-15 09:29N 40°07' W 025°29'1816.1
2017-Aug-15 08:23N 40°10' W 025°51'5416.3
2017-Aug-15 05:03N 40°20' W 027°01'115.9
2017-Aug-15 05:00N 40°20' W 027°02'5416.3
2017-Aug-15 01:41N 40°30' W 028°12'716.3
2017-Aug-15 01:14N 40°31' W 028°21'616.4
2017-Aug-15 00:53N 40°32' W 028°29'816.0
2017-Aug-15 00:23N 40°33' W 028°39'816.3
2017-Aug-14 23:54N 40°34' W 028°49'616.4
2017-Aug-14 23:30N 40°35' W 028°58'2416.2
2017-Aug-14 22:02N 40°39' W 029°29'116.7
2017-Aug-14 22:00N 40°39' W 029°30'1216.2
2017-Aug-14 21:16N 40°41' W 029°45'516.5
2017-Aug-14 20:57N 40°42' W 029°52'816.3
2017-Aug-14 20:29N 40°43' W 030°02'2016.4
2017-Aug-14 19:15N 40°46' W 030°28'  
2017-Aug-09 18:33N 40°22' W 072°59'114.6
2017-Aug-09 18:30N 40°22' W 073°00'3215.0
2017-Aug-09 16:21N 40°26' W 073°42'513.7
2017-Aug-09 16:00N 40°27' W 073°49'713.0
2017-Aug-09 15:26N 40°30' W 073°57'614.0
2017-Aug-09 15:00N 40°35' W 074°02'5 9.8
2017-Aug-09 14:30N 40°39' W 074°05'3 5.7
2017-Aug-09 14:00N 40°39' W 074°09'2 3.5
2017-Aug-09 13:29N 40°40' W 074°08'1 1.1
2017-Aug-09 12:59N 40°41' W 074°09'0 0.0
2017-Aug-09 12:29N 40°41' W 074°09'0 0.0
2017-Aug-09 11:59N 40°41' W 074°09'0 0.0
2017-Aug-09 11:29N 40°41' W 074°09'0 0.0
2017-Aug-09 10:59N 40°41' W 074°09'0 0.0
2017-Aug-09 10:29N 40°41' W 074°09'0 0.0
2017-Aug-09 09:59N 40°41' W 074°09'0 0.0
2017-Aug-09 09:29N 40°41' W 074°09'0 0.0
2017-Aug-09 08:59N 40°41' W 074°09'0 0.0
2017-Aug-09 08:29N 40°41' W 074°09'0 0.0
2017-Aug-09 07:59N 40°41' W 074°09'0 0.0
2017-Aug-09 07:29N 40°41' W 074°09'0 0.0
2017-Aug-09 06:59N 40°41' W 074°09'0 0.0
2017-Aug-09 06:29N 40°41' W 074°09'0 0.0
2017-Aug-09 05:59N 40°41' W 074°09'0 0.0
2017-Aug-09 05:26N 40°41' W 074°09'0 0.0
2017-Aug-09 04:59N 40°41' W 074°09'0 0.0
2017-Aug-09 04:29N 40°41' W 074°09'0 0.0
2017-Aug-09 03:59N 40°41' W 074°09'0 0.0
2017-Aug-09 03:29N 40°41' W 074°09'0 0.0
2017-Aug-09 02:59N 40°41' W 074°09'0 0.0
2017-Aug-09 02:29N 40°41' W 074°09'0 0.0
2017-Aug-09 01:59N 40°41' W 074°09'  

Dump ship's entire track history